Time;durP1;ratioP1;P1;durP2;ratioP2;P2;SDS_P1;SDS_P2;PMS_P1;PMS_P2;Temp;Humidity;BMP_temperature;BMP_pressure;BME280_temperature;BME280_humidity;BME280_pressure;Samples;Min_cycle;Max_cycle;Signal;HPM_P1;HPM_P2
2022/04/14 00:01:30;;;;;;;15.70;8.80;;;;;;;10.88;39.06;99474.88;233078;1219;139114;-59
2022/04/14 00:06:33;;;;;;;14.10;7.90;;;;;;;10.87;39.14;99472.33;233110;1217;139281;-60
2022/04/14 00:11:36;;;;;;;16.60;9.70;;;;;;;10.81;39.38;99471.92;233312;1217;230592;-64
2022/04/14 00:16:39;;;;;;;16.20;9.10;;;;;;;10.74;39.31;99468.04;233239;1217;139149;-60
2022/04/14 00:21:42;;;;;;;17.20;9.60;;;;;;;10.68;39.33;99463.08;233211;1218;139283;-61
2022/04/14 00:26:45;;;;;;;15.90;9.20;;;;;;;10.60;39.66;99458.52;233269;1217;138667;-61
2022/04/14 00:31:48;;;;;;;18.20;8.60;;;;;;;10.53;39.61;99462.14;233181;1217;140103;-60
2022/04/14 00:36:51;;;;;;;21.10;9.20;;;;;;;10.47;39.69;99464.57;233378;1217;140001;-62
2022/04/14 00:41:54;;;;;;;18.00;8.80;;;;;;;10.42;40.03;99462.02;233374;1217;139257;-60
2022/04/14 00:46:57;;;;;;;17.70;9.00;;;;;;;10.36;39.88;99465.35;233188;1217;140770;-60
2022/04/14 00:52:01;;;;;;;20.90;9.60;;;;;;;10.34;40.17;99470.60;233460;1215;139095;-59
2022/04/14 00:57:04;;;;;;;16.10;9.30;;;;;;;10.35;40.21;99473.06;233272;1217;138495;-60
2022/04/14 01:02:08;;;;;;;16.80;9.70;;;;;;;10.34;40.09;99468.83;233313;1217;139455;-60
2022/04/14 01:07:12;;;;;;;20.20;10.60;;;;;;;10.33;40.31;99464.65;233268;1217;139093;-61
2022/04/14 01:12:15;;;;;;;20.00;10.10;;;;;;;10.29;40.39;99461.66;233428;1217;139612;-60
2022/04/14 01:17:18;;;;;;;19.80;10.50;;;;;;;10.24;40.49;99459.10;233207;1215;140150;-61
2022/04/14 01:22:30;;;;;;;19.60;10.10;;;;;;;10.17;40.69;99459.78;233092;1217;139473;-59
2022/04/14 01:27:33;;;;;;;19.70;10.90;;;;;;;10.13;40.69;99453.29;233127;1219;139428;-60
2022/04/14 01:32:36;;;;;;;21.60;11.10;;;;;;;10.08;40.82;99454.29;233179;1217;139617;-62
2022/04/14 01:37:39;;;;;;;20.20;10.60;;;;;;;10.04;41.24;99454.84;233200;1217;139119;-62
2022/04/14 01:42:42;;;;;;;21.40;11.70;;;;;;;10.00;41.24;99453.98;233244;1217;139313;-57
2022/04/14 01:47:45;;;;;;;18.10;10.70;;;;;;;9.96;41.32;99451.70;233353;1217;139475;-60
2022/04/14 01:52:48;;;;;;;21.70;11.10;;;;;;;9.93;41.38;99450.65;232958;1217;139099;-62
2022/04/14 01:57:51;;;;;;;23.10;11.60;;;;;;;9.89;41.45;99450.50;233207;1217;138998;-61
2022/04/14 02:02:54;;;;;;;23.40;11.60;;;;;;;9.85;41.44;99452.66;233230;1217;139364;-61
2022/04/14 02:07:59;;;;;;;20.30;11.30;;;;;;;9.79;41.54;99447.61;233196;1217;139914;-62
2022/04/14 02:13:02;;;;;;;18.60;11.40;;;;;;;9.74;41.71;99449.65;233247;1217;138988;-63
2022/04/14 02:18:06;;;;;;;22.90;11.10;;;;;;;9.70;41.90;99450.04;233507;1217;141161;-63
2022/04/14 02:23:09;;;;;;;21.30;12.20;;;;;;;9.69;41.92;99457.71;233291;1217;139261;-62
2022/04/14 02:28:13;;;;;;;23.20;11.50;;;;;;;9.66;41.67;99468.33;233221;1217;139422;-62
2022/04/14 02:33:16;;;;;;;23.30;11.30;;;;;;;9.63;41.72;99470.40;233125;1219;138825;-63
2022/04/14 02:38:19;;;;;;;23.30;12.30;;;;;;;9.57;42.32;99463.69;233207;1217;139131;-60
2022/04/14 02:43:23;;;;;;;22.20;11.60;;;;;;;9.48;42.46;99461.45;233263;1217;138947;-63
2022/04/14 02:48:26;;;;;;;25.10;11.50;;;;;;;9.41;42.54;99454.55;233468;1217;138900;-63
2022/04/14 02:53:29;;;;;;;20.50;11.10;;;;;;;9.33;42.33;99450.00;233129;1217;138890;-61
2022/04/14 02:58:33;;;;;;;20.60;11.10;;;;;;;9.27;42.69;99450.48;233310;1217;139211;-58
2022/04/14 03:03:35;;;;;;;21.20;11.20;;;;;;;9.18;42.93;99442.93;233267;1217;138794;-62
2022/04/14 03:08:38;;;;;;;22.10;11.20;;;;;;;9.11;43.33;99445.43;233259;1217;138477;-59
2022/04/14 03:13:44;;;;;;;23.40;11.80;;;;;;;9.03;43.44;99447.27;233205;1217;138743;-57
2022/04/14 03:18:47;;;;;;;25.30;11.40;;;;;;;8.93;43.73;99446.69;233159;1217;139888;-59
2022/04/14 03:23:50;;;;;;;24.90;12.60;;;;;;;8.84;44.09;99442.84;233312;1217;139293;-59
2022/04/14 03:28:53;;;;;;;26.60;12.80;;;;;;;8.75;44.30;99446.28;233245;1218;138905;-59
2022/04/14 03:33:56;;;;;;;32.80;15.10;;;;;;;8.65;44.39;99446.95;233238;1217;139092;-60
2022/04/14 03:38:59;;;;;;;40.20;15.80;;;;;;;8.57;44.87;99446.26;233147;1217;139203;-59
2022/04/14 03:44:02;;;;;;;37.70;15.70;;;;;;;8.49;45.23;99444.69;233240;1217;138886;-59
2022/04/14 03:49:05;;;;;;;33.50;14.40;;;;;;;8.40;45.49;99446.16;233147;1219;139229;-60
2022/04/14 03:54:08;;;;;;;35.00;14.20;;;;;;;8.31;45.38;99448.67;233486;1217;138841;-61
2022/04/14 03:59:13;;;;;;;28.50;14.80;;;;;;;8.26;45.53;99450.31;233402;1217;138950;-62
2022/04/14 04:04:16;;;;;;;23.30;13.70;;;;;;;8.22;45.74;99456.00;233267;1217;139569;-60
2022/04/14 04:09:20;;;;;;;31.10;14.60;;;;;;;8.17;46.11;99459.41;233245;1217;138992;-64
2022/04/14 04:14:23;;;;;;;24.90;14.00;;;;;;;8.12;46.52;99463.16;233226;1217;138895;-58
2022/04/14 04:19:26;;;;;;;29.40;14.50;;;;;;;8.11;46.70;99462.17;233141;1218;139049;-61
2022/04/14 04:24:29;;;;;;;28.40;14.90;;;;;;;8.10;46.82;99460.98;233281;1217;139868;-61
2022/04/14 04:29:33;;;;;;;30.50;14.40;;;;;;;8.08;46.94;99457.35;233252;1219;139002;-61
2022/04/14 04:34:36;;;;;;;30.30;15.10;;;;;;;8.06;47.03;99456.92;233173;1217;138875;-63
2022/04/14 04:39:39;;;;;;;29.50;14.70;;;;;;;8.05;47.26;99460.30;233225;1218;139102;-62
2022/04/14 04:44:42;;;;;;;33.40;15.10;;;;;;;8.06;47.55;99466.26;233157;1217;138812;-58
2022/04/14 04:49:45;;;;;;;33.80;16.90;;;;;;;8.09;47.65;99464.02;233134;1217;138792;-64
2022/04/14 04:54:48;;;;;;;35.70;18.10;;;;;;;8.10;47.83;99462.36;233203;1217;140336;-63
2022/04/14 04:59:51;;;;;;;33.90;18.40;;;;;;;8.13;48.01;99463.49;233384;1217;140086;-61
2022/04/14 05:04:54;;;;;;;37.40;19.20;;;;;;;8.18;48.35;99459.92;233154;1217;138928;-65
2022/04/14 05:09:57;;;;;;;34.20;19.00;;;;;;;8.23;48.49;99459.98;233207;1217;138930;-62
2022/04/14 05:15:00;;;;;;;38.80;19.70;;;;;;;8.33;48.43;99463.81;233240;1217;138586;-63
2022/04/14 05:20:03;;;;;;;40.00;20.10;;;;;;;8.42;48.71;99466.24;233263;1216;139557;-64
2022/04/14 05:25:06;;;;;;;32.40;17.70;;;;;;;8.51;48.77;99465.98;233175;1217;139862;-63
2022/04/14 05:30:11;;;;;;;31.80;16.40;;;;;;;8.63;48.38;99463.50;233396;1217;138840;-64
2022/04/14 05:35:14;;;;;;;31.70;16.00;;;;;;;8.77;48.12;99464.27;233201;1217;139110;-61
2022/04/14 05:40:17;;;;;;;26.70;14.40;;;;;;;8.93;47.66;99459.56;233199;1217;139145;-60
2022/04/14 05:45:21;;;;;;;30.80;14.90;;;;;;;9.07;47.41;99460.12;233379;1217;139275;-61
2022/04/14 05:50:23;;;;;;;28.30;15.10;;;;;;;9.20;47.07;99465.86;233342;1217;138687;-62
2022/04/14 05:55:27;;;;;;;30.40;15.60;;;;;;;9.35;46.93;99463.52;233217;1217;138854;-64
2022/04/14 06:00:31;;;;;;;29.10;15.50;;;;;;;9.47;46.67;99458.81;233227;1218;139832;-66
2022/04/14 06:05:35;;;;;;;32.00;15.40;;;;;;;9.59;46.75;99458.77;233226;1217;138465;-61
2022/04/14 06:10:38;;;;;;;33.80;17.30;;;;;;;9.71;46.61;99461.88;233180;1217;138676;-61
2022/04/14 06:15:42;;;;;;;38.10;16.60;;;;;;;9.84;46.57;99460.52;233230;1217;138869;-62
2022/04/14 06:20:47;;;;;;;31.20;16.90;;;;;;;9.96;46.32;99462.36;233257;1217;139022;-61
2022/04/14 06:25:51;;;;;;;32.30;16.40;;;;;;;10.09;46.17;99458.83;233166;1217;139042;-62
2022/04/14 06:30:56;;;;;;;34.20;17.50;;;;;;;10.23;46.22;99460.02;233399;1217;139056;-64
2022/04/14 06:36:00;;;;;;;85.60;55.90;;;;;;;10.40;46.27;99460.01;233515;1217;141028;-62
2022/04/14 06:41:03;;;;;;;32.30;19.30;;;;;;;10.61;46.28;99464.90;233324;1217;139863;-61
2022/04/14 06:46:06;;;;;;;33.30;17.40;;;;;;;10.84;46.17;99461.68;233273;1217;139891;-63
2022/04/14 06:51:10;;;;;;;38.30;17.90;;;;;;;11.02;46.07;99454.96;233376;1217;139382;-64
2022/04/14 06:56:13;;;;;;;33.10;17.70;;;;;;;11.15;45.68;99458.26;233289;1217;139580;-63
2022/04/14 07:01:16;;;;;;;124.40;85.40;;;;;;;11.30;45.68;99451.73;233429;1217;139384;-64
2022/04/14 07:06:20;;;;;;;45.30;23.80;;;;;;;11.49;45.26;99440.27;233594;1217;140617;-62
2022/04/14 07:11:23;;;;;;;32.20;15.80;;;;;;;11.70;45.29;99442.96;233316;1214;140178;-62
2022/04/14 07:16:26;;;;;;;35.80;16.10;;;;;;;11.89;45.13;99443.64;233333;1217;139861;-66
2022/04/14 07:21:29;;;;;;;37.40;16.50;;;;;;;12.06;44.88;99446.30;233393;1217;139548;-63
2022/04/14 07:26:32;;;;;;;37.30;15.00;;;;;;;12.25;45.20;99438.05;233339;1217;139115;-65
2022/04/14 07:31:36;;;;;;;28.60;14.90;;;;;;;12.44;45.20;99439.48;233027;1217;139249;-62
2022/04/14 07:36:39;;;;;;;31.80;14.60;;;;;;;12.64;44.83;99439.30;233497;1217;139329;-64
2022/04/14 07:41:42;;;;;;;31.30;14.90;;;;;;;12.83;44.95;99432.00;233385;1217;140240;-64
2022/04/14 07:46:45;;;;;;;31.70;14.60;;;;;;;13.00;44.14;99432.12;233387;1217;139479;-62
2022/04/14 07:51:48;;;;;;;31.50;14.70;;;;;;;13.18;44.40;99432.02;233358;1216;139270;-60
2022/04/14 07:56:51;;;;;;;30.20;13.40;;;;;;;13.34;44.25;99428.36;233459;1217;139462;-61
2022/04/14 08:01:54;;;;;;;391.50;236.50;;;;;;;13.47;44.19;99431.70;233475;1217;139315;-63
2022/04/14 08:06:57;;;;;;;147.30;93.60;;;;;;;13.67;44.60;99430.16;233473;1217;139481;-65
2022/04/14 08:12:20;;;;;;;38.30;19.60;;;;;;;13.95;44.19;99432.91;233498;1217;139378;-65
2022/04/14 08:17:23;;;;;;;30.30;14.40;;;;;;;14.12;43.76;99433.63;233388;1217;139338;-62
2022/04/14 08:22:26;;;;;;;29.90;13.50;;;;;;;14.27;43.63;99431.86;233292;1217;141202;-65
2022/04/14 08:27:29;;;;;;;29.00;13.30;;;;;;;14.49;43.49;99431.91;233432;1217;139856;-67
2022/04/14 08:32:34;;;;;;;29.70;12.30;;;;;;;14.65;43.19;99425.09;233317;1217;139307;-61
2022/04/14 08:37:37;;;;;;;25.40;11.30;;;;;;;14.86;42.86;99422.48;233242;1217;138822;-66
2022/04/14 08:42:52;;;;;;;25.90;10.50;;;;;;;15.10;42.59;99423.70;233270;1217;140738;-63
2022/04/14 08:47:58;;;;;;;31.50;10.60;;;;;;;15.33;42.21;99413.95;233290;1217;139744;-65
2022/04/14 08:53:04;;;;;;;28.50;11.50;;;;;;;15.58;42.66;99412.02;233502;1217;138860;-65
2022/04/14 08:58:13;;;;;;;42.00;26.10;;;;;;;16.22;45.16;99409.92;233290;1217;140183;-66
2022/04/14 09:03:18;;;;;;;89.90;66.10;;;;;;;16.90;46.85;99402.89;233428;1217;140331;-60
2022/04/14 09:08:22;;;;;;;23.80;11.90;;;;;;;17.33;43.49;99405.90;233406;1217;141134;-60
2022/04/14 09:13:25;;;;;;;53.60;36.10;;;;;;;17.41;42.25;99400.60;233414;1217;139253;-66
2022/04/14 09:18:29;;;;;;;31.30;20.40;;;;;;;17.67;43.58;99395.90;233419;1217;139157;-61
2022/04/14 09:23:32;;;;;;;32.30;19.80;;;;;;;17.99;44.04;99387.95;233303;1217;139538;-64
2022/04/14 09:28:35;;;;;;;27.60;16.50;;;;;;;18.38;43.22;99386.80;233349;1217;138817;-61
2022/04/14 09:33:48;;;;;;;18.90;11.90;;;;;;;18.69;42.67;99373.98;233351;1217;139718;-63
2022/04/14 09:38:59;;;;;;;22.30;13.20;;;;;;;18.94;41.60;99366.68;233414;1217;139475;-65
2022/04/14 09:44:14;;;;;;;15.30;8.80;;;;;;;19.10;40.75;99349.88;233285;1217;139059;-61
2022/04/14 09:49:18;;;;;;;15.00;9.20;;;;;;;19.17;40.21;99337.20;233127;1217;138713;-65
2022/04/14 09:54:28;;;;;;;16.90;9.10;;;;;;;19.31;39.47;99334.45;233450;1217;139046;-67
2022/04/14 09:59:32;;;;;;;16.90;8.70;;;;;;;19.44;39.16;99330.77;233390;1217;139507;-63
2022/04/14 10:04:38;;;;;;;15.80;9.10;;;;;;;19.58;38.91;99322.73;233450;1217;138776;-61
2022/04/14 10:09:43;;;;;;;197.70;156.90;;;;;;;19.72;39.01;99320.69;233252;1217;139438;-63
2022/04/14 10:14:56;;;;;;;11.50;8.00;;;;;;;19.81;38.52;99319.10;233292;1217;139617;-63
2022/04/14 10:19:59;;;;;;;13.60;7.40;;;;;;;19.81;37.69;99312.67;233229;1217;140013;-65
2022/04/14 10:25:03;;;;;;;11.60;7.20;;;;;;;19.85;37.46;99308.71;233230;1217;162524;-64
2022/04/14 10:30:06;;;;;;;25.30;12.10;;;;;;;19.88;37.05;99308.81;233464;1215;139199;-61
2022/04/14 10:35:10;;;;;;;24.00;9.90;;;;;;;20.00;37.40;99294.84;233413;1217;139517;-63
2022/04/14 10:40:14;;;;;;;14.20;8.50;;;;;;;20.21;37.14;99290.04;233200;1217;139735;-65
2022/04/14 10:45:23;;;;;;;12.60;7.90;;;;;;;20.42;37.07;99282.57;233360;1217;139646;-64
2022/04/14 10:50:32;;;;;;;14.90;7.60;;;;;;;20.57;36.97;99284.02;233286;1217;139708;-61
2022/04/14 10:55:41;;;;;;;15.40;7.40;;;;;;;20.74;36.82;99280.17;233306;1217;141485;-64
2022/04/14 11:00:44;;;;;;;16.20;7.40;;;;;;;20.81;36.30;99284.14;233477;1217;139089;-57
2022/04/14 11:05:51;;;;;;;22.30;16.80;;;;;;;20.74;36.13;99276.69;233262;1217;139061;-62
2022/04/14 11:11:10;;;;;;;16.80;10.70;;;;;;;20.67;35.36;99273.33;233225;1217;140641;-62
2022/04/14 11:16:39;;;;;;;12.80;7.50;;;;;;;20.55;34.92;99271.22;233349;1217;141441;-63
2022/04/14 11:22:06;;;;;;;14.50;7.30;;;;;;;20.63;34.97;99274.04;233283;1216;138983;-61
2022/04/14 11:27:13;;;;;;;14.10;8.10;;;;;;;20.86;35.13;99271.73;233407;1217;139272;-61
2022/04/14 11:32:36;;;;;;;15.90;7.40;;;;;;;21.09;35.12;99266.45;233358;1217;139488;-63
2022/04/14 11:37:59;;;;;;;14.00;8.10;;;;;;;21.29;34.87;99256.55;233324;1217;139120;-67
2022/04/14 11:43:03;;;;;;;13.40;8.20;;;;;;;21.51;34.69;99250.27;233510;1217;139180;-63
2022/04/14 11:48:09;;;;;;;83.80;61.50;;;;;;;21.67;34.29;99245.48;233221;1217;139113;-65
2022/04/14 11:53:12;;;;;;;;;;;;;;;21.86;34.18;99239.89;233347;1217;139242;-64
2022/04/14 11:58:15;;;;;;;21.60;12.50;;;;;;;21.97;33.87;99228.27;233468;1217;125035;-62
2022/04/14 12:03:31;;;;;;;19.00;10.30;;;;;;;22.14;33.47;99232.80;233254;1217;139517;-62
2022/04/14 12:08:35;;;;;;;15.30;9.80;;;;;;;22.26;33.74;99224.06;233173;1217;139167;-62
2022/04/14 12:13:40;;;;;;;16.00;9.30;;;;;;;22.48;33.32;99217.73;233319;1217;139614;-59
2022/04/14 12:18:55;;;;;;;16.30;9.30;;;;;;;22.68;33.62;99209.73;233416;1217;139963;-61
2022/04/14 12:23:58;;;;;;;16.60;9.50;;;;;;;22.94;33.32;99201.55;233260;1217;139073;-61
2022/04/14 12:29:02;;;;;;;18.50;9.30;;;;;;;23.11;33.39;99191.47;233482;1217;139152;-60
2022/04/14 12:34:09;;;;;;;16.00;8.60;;;;;;;23.32;33.21;99193.84;233190;1217;139265;-64
2022/04/14 12:39:32;;;;;;;94.80;59.30;;;;;;;23.47;32.64;99189.02;233184;1219;139124;-65
2022/04/14 12:44:43;;;;;;;26.10;16.30;;;;;;;23.53;32.26;99191.17;233156;1217;139143;-62
2022/04/14 12:49:47;;;;;;;14.40;9.00;;;;;;;23.60;31.95;99182.49;233149;1217;209289;-65
2022/04/14 12:54:50;;;;;;;73.20;61.50;;;;;;;23.79;31.79;99175.95;233343;1217;139183;-61
2022/04/14 13:00:07;;;;;;;19.20;10.90;;;;;;;23.98;31.66;99164.55;233250;1217;139239;-61
2022/04/14 13:05:16;;;;;;;17.40;9.40;;;;;;;24.21;31.31;99159.65;233209;1217;139494;-63
2022/04/14 13:10:38;;;;;;;16.60;8.90;;;;;;;24.37;31.16;99142.21;233260;1217;139208;-62
2022/04/14 13:15:41;;;;;;;17.40;8.90;;;;;;;24.61;31.08;99138.81;233317;1217;139004;-63
2022/04/14 13:20:44;;;;;;;19.70;7.20;;;;;;;24.74;31.07;99128.54;233285;1217;138952;-61
2022/04/14 13:25:48;;;;;;;13.50;7.60;;;;;;;24.88;30.85;99120.14;233383;1216;138902;-62
2022/04/14 13:30:51;;;;;;;14.30;7.30;;;;;;;25.03;30.73;99110.73;233282;1216;139495;-62
2022/04/14 13:35:54;;;;;;;13.60;7.00;;;;;;;25.20;30.63;99109.08;233226;1217;139627;-64
2022/04/14 13:40:58;;;;;;;12.60;6.30;;;;;;;25.27;29.86;99094.92;233440;1217;139126;-62
2022/04/14 13:46:01;;;;;;;9.10;6.10;;;;;;;25.26;29.51;99096.34;233378;1217;139072;-64
2022/04/14 13:51:04;;;;;;;11.20;6.20;;;;;;;25.37;29.71;99093.90;233334;1217;138964;-61
2022/04/14 13:56:07;;;;;;;208.10;165.30;;;;;;;25.53;29.93;99088.24;233147;1217;138968;-61
2022/04/14 14:01:13;;;;;;;22.30;12.50;;;;;;;25.67;29.96;99083.42;233238;1217;140456;-62
2022/04/14 14:06:17;;;;;;;12.80;7.20;;;;;;;25.76;29.96;99086.75;233188;1217;139229;-62
2022/04/14 14:11:20;;;;;;;19.60;9.80;;;;;;;25.79;29.79;99077.45;233257;1217;139197;-59
2022/04/14 14:16:23;;;;;;;24.90;8.80;;;;;;;25.86;30.12;99075.12;233225;1217;138814;-62
2022/04/14 14:21:27;;;;;;;15.20;7.30;;;;;;;25.81;29.87;99068.52;233145;1217;139104;-62
2022/04/14 14:26:30;;;;;;;16.90;10.10;;;;;;;25.65;29.96;99068.18;233263;1217;139001;-62
2022/04/14 14:31:33;;;;;;;10.80;5.70;;;;;;;25.26;29.74;99069.35;233336;1217;140021;-61
2022/04/14 14:36:36;;;;;;;10.00;5.80;;;;;;;24.66;29.44;99066.80;233275;1217;139568;-62
2022/04/14 14:41:39;;;;;;;8.20;5.50;;;;;;;24.08;29.66;99064.73;233345;1217;139902;-64
2022/04/14 14:46:42;;;;;;;11.80;5.70;;;;;;;23.67;30.07;99067.39;233139;1217;139385;-64
2022/04/14 14:51:46;;;;;;;10.50;5.20;;;;;;;23.32;30.24;99063.48;233294;1217;138799;-62
2022/04/14 14:56:50;;;;;;;52.20;44.70;;;;;;;23.10;30.53;99058.29;233049;1217;139260;-61
2022/04/14 15:01:52;;;;;;;13.70;7.20;;;;;;;22.96;30.77;99051.95;233236;1217;139416;-64
2022/04/14 15:06:56;;;;;;;15.10;6.10;;;;;;;22.83;31.19;99059.96;233341;1217;139781;-64
2022/04/14 15:11:59;;;;;;;11.40;5.70;;;;;;;22.62;31.29;99049.94;233314;1217;139283;-64
2022/04/14 15:17:03;;;;;;;12.70;5.90;;;;;;;22.48;31.76;99050.70;233152;1215;138521;-63
2022/04/14 15:22:06;;;;;;;8.80;5.10;;;;;;;22.28;32.44;99046.95;233362;1217;139159;-63
2022/04/14 15:27:09;;;;;;;8.20;5.80;;;;;;;22.16;32.71;99046.09;233283;1217;138971;-61
2022/04/14 15:32:12;;;;;;;8.00;5.50;;;;;;;22.03;33.06;99046.36;233261;1217;140001;-62
2022/04/14 15:38:19;;;;;;;10.20;5.80;;;;;;;21.97;33.57;99045.66;233133;1217;139428;-59
2022/04/14 16:19:06;;;;;;;14.00;6.80;;;;;;;23.63;33.63;99035.42;230206;1232;678389;-61
2022/04/14 16:24:19;;;;;;;8.00;4.60;;;;;;;23.58;33.12;99034.34;232091;1223;138435;-62
2022/04/14 16:29:23;;;;;;;9.30;4.50;;;;;;;23.27;32.96;99033.77;232149;1223;139191;-63
2022/04/14 16:34:32;;;;;;;7.70;4.20;;;;;;;23.03;32.77;99037.08;232482;1223;138547;-63
2022/04/14 16:39:42;;;;;;;10.40;4.50;;;;;;;22.80;32.83;99035.11;232103;1223;138464;-62
2022/04/14 16:44:54;;;;;;;9.70;4.30;;;;;;;22.47;32.73;99033.92;232293;1223;137539;-62
2022/04/14 16:49:59;;;;;;;10.50;4.40;;;;;;;22.18;32.86;99039.17;231974;1223;140739;-62
2022/04/14 16:55:08;;;;;;;9.40;4.00;;;;;;;21.89;33.00;99040.17;232001;1223;138962;-63
2022/04/14 17:00:14;;;;;;;9.20;4.50;;;;;;;21.62;33.50;99040.02;231915;1223;137922;-61
2022/04/14 17:05:21;;;;;;;51.50;35.90;;;;;;;21.38;33.35;99040.57;232160;1221;138810;-63
2022/04/14 17:10:30;;;;;;;15.70;12.00;;;;;;;21.18;33.56;99047.77;232054;1223;138572;-60
2022/04/14 17:15:37;;;;;;;9.30;5.10;;;;;;;20.97;33.41;99054.31;232071;1223;140329;-63
2022/04/14 17:20:55;;;;;;;10.90;4.90;;;;;;;20.77;33.45;99054.30;232140;1223;137619;-61
2022/04/14 17:26:03;;;;;;;10.50;6.30;;;;;;;20.56;33.59;99053.00;232613;1223;138619;-61
2022/04/14 17:31:09;;;;;;;10.70;5.30;;;;;;;20.35;33.54;99064.11;232310;1223;138626;-61
2022/04/14 17:36:14;;;;;;;17.40;5.40;;;;;;;20.16;33.76;99071.49;232305;1222;138521;-60
2022/04/14 17:41:23;;;;;;;102.10;80.30;;;;;;;19.99;34.11;99065.85;232275;1223;138474;-63
2022/04/14 17:46:32;;;;;;;11.60;7.20;;;;;;;19.86;34.27;99070.73;232499;1222;139694;-61
2022/04/14 17:51:36;;;;;;;12.60;5.50;;;;;;;19.67;34.22;99074.21;232003;1223;138268;-61
2022/04/14 17:56:41;;;;;;;11.60;5.50;;;;;;;19.49;34.55;99086.90;232371;1223;138180;-60
2022/04/14 18:01:52;;;;;;;13.40;5.90;;;;;;;19.30;34.53;99088.80;232661;1221;138046;-58
2022/04/14 18:07:02;;;;;;;11.00;5.90;;;;;;;19.15;34.85;99092.78;232540;1223;138813;-60
2022/04/14 18:12:10;;;;;;;10.40;5.20;;;;;;;18.97;35.04;99086.64;232417;1223;138245;-61
2022/04/14 18:17:21;;;;;;;21.10;7.00;;;;;;;18.80;35.45;99098.68;232484;1222;138659;-63
2022/04/14 18:22:29;;;;;;;17.50;9.00;;;;;;;18.62;35.66;99101.57;232378;1222;138579;-60
2022/04/14 18:27:46;;;;;;;40.20;23.60;;;;;;;18.48;36.27;99099.67;232279;1223;138512;-59
2022/04/14 18:33:00;;;;;;;24.90;8.40;;;;;;;18.41;36.42;99106.25;231955;1222;139420;-61
2022/04/14 18:38:09;;;;;;;21.40;7.20;;;;;;;18.26;36.60;99117.89;232321;1222;138136;-61
2022/04/14 18:43:22;;;;;;;18.80;7.00;;;;;;;18.13;36.88;99114.64;231975;1223;139276;-57
2022/04/14 18:48:29;;;;;;;17.30;6.90;;;;;;;17.99;37.28;99106.20;232239;1222;138742;-58
2022/04/14 18:53:47;;;;;;;26.10;8.10;;;;;;;17.86;37.11;99105.45;232146;1223;138705;-60
2022/04/14 18:58:52;;;;;;;22.00;7.50;;;;;;;17.75;37.71;99106.08;232703;1222;138392;-60
2022/04/14 19:04:01;;;;;;;23.20;7.40;;;;;;;17.61;37.72;99103.73;232970;1223;138705;-60
2022/04/14 19:09:07;;;;;;;19.10;7.70;;;;;;;17.46;38.10;99107.04;232661;1222;140156;-58
2022/04/14 19:14:15;;;;;;;26.80;7.30;;;;;;;17.29;37.87;99109.52;232296;1223;138340;-57
2022/04/14 19:19:27;;;;;;;18.60;7.90;;;;;;;17.15;38.58;99106.73;232538;1222;138588;-60
2022/04/14 19:24:32;;;;;;;21.50;8.70;;;;;;;17.04;38.76;99110.56;232231;1223;138563;-59
2022/04/14 19:29:37;;;;;;;22.90;8.20;;;;;;;16.93;38.88;99117.06;232004;1223;138541;-59
2022/04/14 19:34:46;;;;;;;20.60;8.40;;;;;;;16.83;39.16;99117.45;232061;1223;138287;-60
2022/04/14 19:39:55;;;;;;;23.30;9.00;;;;;;;16.73;39.29;99117.91;232156;1220;138568;-56
2022/04/14 19:45:04;;;;;;;20.80;8.90;;;;;;;16.61;39.55;99116.95;231987;1223;208838;-56
2022/04/14 19:50:15;;;;;;;17.60;9.40;;;;;;;16.48;39.83;99114.45;232033;1223;138915;-57
2022/04/14 19:55:32;;;;;;;17.90;9.40;;;;;;;16.36;40.33;99118.20;232185;1222;138433;-59
2022/04/14 20:00:45;;;;;;;21.10;9.50;;;;;;;16.22;40.58;99124.01;231880;1223;138016;-58
2022/04/14 20:05:55;;;;;;;18.00;9.60;;;;;;;16.11;41.00;99127.23;231995;1223;138269;-59
2022/04/14 20:11:14;;;;;;;18.30;8.40;;;;;;;16.07;40.84;99130.25;231777;1222;138780;-57
2022/04/14 20:16:28;;;;;;;17.00;8.90;;;;;;;16.19;40.72;99137.73;232183;1222;138290;-59
2022/04/14 20:21:38;;;;;;;19.50;10.20;;;;;;;16.32;40.51;99138.38;232010;1222;139584;-58
2022/04/14 20:26:52;;;;;;;20.00;10.10;;;;;;;16.40;40.35;99138.14;231995;1222;138851;-59
2022/04/14 20:32:07;;;;;;;19.40;10.30;;;;;;;16.49;40.25;99148.07;232021;1223;138797;-59
2022/04/14 20:37:12;;;;;;;;;;;;;;;16.50;40.26;99143.00;232147;1222;138969;-59
2022/04/14 20:42:41;;;;;;;17.40;10.50;;;;;;;16.53;39.96;99148.47;232060;1223;124940;-59
2022/04/14 20:47:51;;;;;;;16.10;10.10;;;;;;;16.50;39.92;99140.59;231854;1223;139036;-59
2022/04/14 20:53:03;;;;;;;27.50;10.80;;;;;;;16.58;39.87;99144.13;231932;1223;140059;-59
2022/04/14 20:58:10;;;;;;;25.90;11.10;;;;;;;16.58;39.91;99144.05;231907;1223;139070;-59
2022/04/14 21:03:25;;;;;;;19.00;10.20;;;;;;;16.59;40.04;99142.94;232706;1222;138863;-58
2022/04/14 21:08:38;;;;;;;21.90;11.40;;;;;;;16.61;39.75;99147.94;232649;1222;138380;-59
2022/04/14 21:13:53;;;;;;;21.90;11.10;;;;;;;16.64;39.87;99147.90;232553;1222;139815;-58
2022/04/14 21:19:09;;;;;;;18.80;11.10;;;;;;;16.67;39.87;99152.30;232537;1223;138592;-59
2022/04/14 21:24:25;;;;;;;24.40;11.80;;;;;;;16.66;39.83;99145.93;232425;1223;139101;-58
2022/04/14 21:29:37;;;;;;;24.20;11.70;;;;;;;16.64;39.71;99145.89;232377;1222;138678;-58
2022/04/14 21:34:49;;;;;;;22.20;13.20;;;;;;;16.65;39.55;99149.39;232451;1222;138547;-59
2022/04/14 21:40:00;;;;;;;37.10;14.20;;;;;;;16.57;40.37;99148.99;232434;1222;139800;-59
2022/04/14 21:50:34;;;;;;;32.10;14.20;;;;;;;15.95;41.33;99144.00;232518;1222;138707;-57
2022/04/14 21:55:50;;;;;;;22.10;13.60;;;;;;;15.68;41.50;99147.42;232375;1222;138890;-59
2022/04/14 22:01:13;;;;;;;23.70;13.70;;;;;;;15.60;41.50;99153.60;232440;1222;138995;-58
2022/04/14 22:06:27;;;;;;;29.40;14.30;;;;;;;15.55;41.75;99150.09;232264;1222;138193;-58
2022/04/14 22:11:33;;;;;;;28.70;14.90;;;;;;;15.52;41.70;99150.54;232364;1221;139008;-57
2022/04/14 22:16:48;;;;;;;31.50;15.60;;;;;;;15.49;41.82;99142.35;232463;1222;138330;-58
2022/04/14 22:21:58;;;;;;;35.00;14.80;;;;;;;15.43;42.08;99142.70;232719;1223;138922;-57
2022/04/14 22:27:13;;;;;;;26.90;14.50;;;;;;;15.27;42.08;99140.55;232680;1222;138793;-60
2022/04/14 22:32:28;;;;;;;33.20;18.80;;;;;;;15.11;42.50;99148.44;232105;1224;138387;-59
2022/04/14 22:37:39;;;;;;;43.10;21.90;;;;;;;15.08;42.68;99144.77;232548;1222;138586;-59
2022/04/14 22:42:51;;;;;;;44.70;23.90;;;;;;;15.09;42.84;99142.33;232409;1223;138819;-59
2022/04/14 22:48:06;;;;;;;38.70;20.50;;;;;;;15.08;42.93;99134.37;232443;1223;138334;-58
2022/04/14 22:53:15;;;;;;;41.70;21.50;;;;;;;15.04;43.16;99124.67;232473;1222;138535;-59
2022/04/14 22:58:26;;;;;;;37.10;19.10;;;;;;;14.99;43.59;99133.29;232235;1223;140342;-58
2022/04/14 23:03:30;;;;;;;35.30;20.20;;;;;;;14.88;43.72;99138.93;232338;1222;138516;-60
2022/04/14 23:08:40;;;;;;;34.40;19.00;;;;;;;14.85;43.54;99134.70;232329;1222;138554;-57
2022/04/14 23:13:56;;;;;;;32.80;19.20;;;;;;;14.86;43.61;99129.30;232176;1223;139354;-59
2022/04/14 23:19:10;;;;;;;530.60;329.30;;;;;;;14.89;43.40;99127.24;232276;1223;138538;-56
2022/04/14 23:24:15;;;;;;;43.70;24.30;;;;;;;14.99;43.20;99126.57;232510;1223;139170;-60
2022/04/14 23:29:24;;;;;;;32.50;19.50;;;;;;;15.00;42.96;99113.95;232940;1223;138988;-62
2022/04/14 23:34:31;;;;;;;42.00;19.80;;;;;;;14.98;43.18;99112.82;232778;1223;139374;-60
2022/04/14 23:44:54;;;;;;;32.40;17.70;;;;;;;14.77;43.51;99113.92;232557;1222;138175;-60
2022/04/14 23:50:04;;;;;;;32.00;17.00;;;;;;;14.71;43.48;99112.81;232497;1222;138904;-61
2022/04/14 23:55:15;;;;;;;27.30;14.50;;;;;;;14.74;43.07;99111.16;232728;1222;139544;-61
